Lithia, FL (33547)

6:26 AM EDT on July 26, 2016 (GMT -0400)
J&V Huston Farm | | Change Station

Elev 98 ft 27.84 °N, 82.20 °W | Updated 2 seconds ago

Clear
Clear
74.5 °F
Feels Like 72 °F
N
0.0
Wind Variable Wind from SW
Gusts 0.0 mph

Today
High -- | Low -- °F
--% Chance of Precip.
Yesterday
High -- | Low -- °F
Precip. -- in
Pressure 30.09 in
Visibility 10.0 miles
Clouds Clear
Heat Index 72 °F
Dew Point 73 °F
Humidity 96%
Rainfall 0.00 in
Snow Depth Not available.
6:48 AM 8:21 PM
Waning Gibbous, 56% visible
METAR KPCM 261015Z AUTO 00000KT 10SM CLR 24/24 A3009 RMK AO2
Pressure 30.09 in
Visibility 10.0 miles
Clouds Clear
Heat Index 72 °F
Dew Point 73 °F
Humidity 96%
Rainfall 0.00 in
Snow Depth Not available.
6:48 AM 8:21 PM
Waning Gibbous, 56% visible
METAR KPCM 261015Z AUTO 00000KT 10SM CLR 24/24 A3009 RMK AO2

10-Day Weather Forecast

Almanac

Astronomy

Jul. 26, 2016 Rise Set
Actual Time
Civil Twilight
Nautical Twilight
Astronomical Twilight
Moon
Length of Visible Light
Length of Day
Tomorrow will be .
, % of the Moon is Illuminated

Today's Extremes

State Highs State Lows

Community

WunderPhotos

Upload Photos

1,927,557 photos uploaded!

WunderBlog® & News

Nearby

Air Quality

  Air Quality AQ Index Pollutant
Not available.

Snow Depth

Station Depth Elevation

Earthquake Activity

City Distance Mag. Time & Date
Minimum magnitude displayed is 2.5.

Coastal Water Temperatures

Place Temperature

Stations

Nearby Weather Stations

Station Location Temp. Windchill Dew Point Humidity Wind Precip. Elev Updated Type
                   

Watches & Warnings

There are currently no watches in effect.